Time;durP1;ratioP1;P1;durP2;ratioP2;P2;SDS_P1;SDS_P2;PMS_P1;PMS_P2;Temp;Humidity;BMP_temperature;BMP_pressure;BME280_temperature;BME280_humidity;BME280_pressure;Samples;Min_cycle;Max_cycle;Signal;HPM_P1;HPM_P2
2023/01/27 00:00:38;;;;;;;11.20;5.60;;;5.40;53.50;;;;;;4932737;28;20797;-89
2023/01/27 00:03:05;;;;;;;11.67;6.40;;;5.40;53.80;;;;;;4931902;28;20566;-89
2023/01/27 00:05:32;;;;;;;14.27;6.13;;;5.50;53.50;;;;;;4933218;28;21009;-90
2023/01/27 00:08:01;;;;;;;10.80;6.53;;;5.40;53.50;;;;;;4934655;28;20448;-90
2023/01/27 00:10:28;;;;;;;10.87;5.70;;;5.50;53.40;;;;;;4931101;28;21052;-90
2023/01/27 00:15:40;;;;;;;9.20;6.20;;;5.50;53.70;;;;;;4943042;28;20673;-89
2023/01/27 00:18:07;;;;;;;10.97;6.53;;;5.60;53.70;;;;;;4960812;28;21011;-88
2023/01/27 00:26:10;;;;;;;12.90;5.70;;;5.80;52.80;;;;;;4929048;28;20495;-89
2023/01/27 00:28:39;;;;;;;10.87;4.90;;;5.80;53.00;;;;;;4929599;28;20766;-91
2023/01/27 00:33:55;;;;;;;10.33;6.40;;;5.60;52.90;;;;;;4927971;28;20463;-89
2023/01/27 00:36:22;;;;;;;10.70;5.70;;;5.50;53.60;;;;;;4926815;28;21005;-89
2023/01/27 00:38:51;;;;;;;15.27;6.43;;;5.60;53.90;;;;;;4930064;28;20460;-90
2023/01/27 00:41:22;;;;;;;9.97;5.70;;;5.80;53.50;;;;;;4931552;28;20456;-90
2023/01/27 00:43:51;;;;;;;13.60;6.17;;;5.90;53.30;;;;;;4943496;28;20479;-89
2023/01/27 00:46:19;;;;;;;9.70;5.20;;;6.00;53.20;;;;;;4962340;28;20508;-90
2023/01/27 00:48:46;;;;;;;8.43;5.27;;;5.70;53.70;;;;;;4949454;28;20503;-91
2023/01/27 00:51:16;;;;;;;12.00;5.80;;;5.70;53.30;;;;;;4994803;28;20464;-90
2023/01/27 00:53:43;;;;;;;10.77;6.10;;;5.70;53.30;;;;;;4930813;28;20482;-89
2023/01/27 00:56:12;;;;;;;11.70;7.07;;;5.70;53.30;;;;;;4948037;28;20459;-89
2023/01/27 00:58:39;;;;;;;14.40;6.53;;;5.90;53.50;;;;;;4934892;28;20484;-90
2023/01/27 01:01:11;;;;;;;11.57;5.93;;;5.90;53.30;;;;;;4931354;28;20448;-90
2023/01/27 01:03:40;;;;;;;8.13;5.03;;;5.80;53.20;;;;;;4928845;28;20468;-90
2023/01/27 01:06:08;;;;;;;11.43;6.37;;;5.70;53.30;;;;;;4931593;28;20535;-87
2023/01/27 01:08:37;;;;;;;9.60;5.40;;;5.70;53.40;;;;;;4935267;28;20458;-90
2023/01/27 01:11:05;;;;;;;14.43;6.83;;;5.80;53.60;;;;;;4971607;28;20950;-91
2023/01/27 01:13:34;;;;;;;12.00;5.90;;;5.90;53.70;;;;;;4949670;28;20595;-89
2023/01/27 01:16:06;;;;;;;12.07;5.50;;;5.70;53.40;;;;;;4927216;28;20452;-90
2023/01/27 01:18:35;;;;;;;8.13;5.87;;;5.50;53.80;;;;;;4922226;28;20458;-89
2023/01/27 01:21:02;;;;;;;11.10;5.90;;;5.50;54.00;;;;;;4936259;28;20453;-90
2023/01/27 01:23:29;;;;;;;14.13;7.00;;;5.40;53.80;;;;;;4919608;28;21021;-90
2023/01/27 01:25:57;;;;;;;12.00;5.30;;;5.40;54.20;;;;;;4965869;28;20468;-92
2023/01/27 01:28:25;;;;;;;11.80;5.77;;;5.60;54.00;;;;;;4923529;28;20456;-87
2023/01/27 01:30:53;;;;;;;14.23;6.43;;;5.60;53.80;;;;;;4948845;28;20452;-89
2023/01/27 01:33:21;;;;;;;10.30;6.30;;;5.70;53.60;;;;;;4933090;28;20527;-91
2023/01/27 01:35:48;;;;;;;11.83;5.30;;;5.60;53.60;;;;;;4947991;28;20518;-89
2023/01/27 01:38:15;;;;;;;19.00;6.40;;;5.50;53.70;;;;;;4926578;28;20451;-91
2023/01/27 01:40:43;;;;;;;11.00;6.00;;;5.60;53.90;;;;;;4929320;28;20451;-90
2023/01/27 01:43:16;;;;;;;11.13;7.13;;;5.60;53.80;;;;;;4932864;28;20487;-89
2023/01/27 01:45:47;;;;;;;16.10;6.10;;;5.40;54.10;;;;;;4931918;28;20466;-89
2023/01/27 01:48:21;;;;;;;10.40;5.10;;;5.20;54.30;;;;;;4930275;28;20862;-89
2023/01/27 01:50:54;;;;;;;8.30;5.30;;;5.30;54.70;;;;;;4926076;28;20467;-89
2023/01/27 01:53:28;;;;;;;13.30;5.47;;;5.30;54.30;;;;;;4932683;28;20523;-89
2023/01/27 01:55:58;;;;;;;7.20;4.20;;;5.40;54.40;;;;;;4924768;28;20452;-92
2023/01/27 01:58:27;;;;;;;10.73;6.63;;;5.50;54.10;;;;;;4939704;28;20836;-91
2023/01/27 02:00:55;;;;;;;16.17;6.53;;;5.60;54.20;;;;;;4947528;28;20542;-89
2023/01/27 02:03:26;;;;;;;8.30;5.70;;;5.60;53.70;;;;;;4934152;28;20472;-89
2023/01/27 02:05:54;;;;;;;9.33;5.73;;;5.70;53.70;;;;;;4930747;28;20460;-89
2023/01/27 02:08:27;;;;;;;8.83;5.23;;;5.90;53.70;;;;;;4934368;28;20962;-88
2023/01/27 02:10:55;;;;;;;12.67;6.30;;;6.00;53.20;;;;;;4928194;28;20456;-91
2023/01/27 02:13:22;;;;;;;18.83;6.33;;;6.00;53.60;;;;;;4932837;28;20496;-88
2023/01/27 02:15:52;;;;;;;13.63;6.47;;;6.00;53.50;;;;;;4933197;28;20582;-89
2023/01/27 02:18:19;;;;;;;16.00;6.97;;;6.00;53.10;;;;;;4934653;28;20460;-89
2023/01/27 02:20:50;;;;;;;11.60;6.03;;;6.10;53.00;;;;;;4924359;28;20452;-91
2023/01/27 02:23:31;;;;;;;11.53;6.87;;;6.00;53.30;;;;;;4965117;28;20838;-89
2023/01/27 02:26:05;;;;;;;11.97;7.13;;;5.80;53.00;;;;;;4961240;28;20468;-89
2023/01/27 02:28:33;;;;;;;11.57;6.87;;;5.80;53.60;;;;;;4931975;28;20875;-89
2023/01/27 02:31:00;;;;;;;10.87;7.43;;;5.60;53.40;;;;;;4936016;28;20614;-89
2023/01/27 02:33:28;;;;;;;9.70;5.80;;;5.70;53.40;;;;;;4929113;28;20560;-89
2023/01/27 02:36:02;;;;;;;15.50;6.77;;;5.80;53.50;;;;;;4934447;28;20965;-89
2023/01/27 02:38:33;;;;;;;10.93;6.37;;;5.70;53.20;;;;;;4949918;28;20467;-91
2023/01/27 02:41:06;;;;;;;10.37;4.70;;;5.60;53.10;;;;;;4950351;28;20460;-90
2023/01/27 02:43:33;;;;;;;10.00;6.20;;;5.50;53.30;;;;;;4953339;28;20880;-89
2023/01/27 02:46:00;;;;;;;13.70;6.13;;;5.20;53.50;;;;;;4924963;28;20452;-90
2023/01/27 02:48:28;;;;;;;10.70;5.30;;;5.10;54.50;;;;;;4942322;28;20677;-90
2023/01/27 02:50:55;;;;;;;9.97;5.70;;;5.30;54.10;;;;;;4951139;28;20551;-89
2023/01/27 02:53:22;;;;;;;10.47;5.83;;;5.30;54.00;;;;;;4930009;28;20482;-90
2023/01/27 02:55:49;;;;;;;14.30;7.40;;;5.20;54.00;;;;;;4956139;28;20457;-89
2023/01/27 02:58:18;;;;;;;9.23;5.47;;;5.40;53.80;;;;;;4933334;28;20456;-89
2023/01/27 03:00:47;;;;;;;8.77;4.73;;;5.30;53.50;;;;;;4929629;28;20456;-90
2023/01/27 03:03:15;;;;;;;7.40;4.20;;;5.40;53.70;;;;;;4935714;28;20499;-89
2023/01/27 03:05:42;;;;;;;9.17;5.20;;;5.30;53.40;;;;;;4951689;28;20464;-87
2023/01/27 03:08:09;;;;;;;12.53;6.43;;;5.40;53.80;;;;;;4935431;28;20472;-90
2023/01/27 03:10:36;;;;;;;12.77;6.00;;;5.40;53.50;;;;;;4935109;28;20723;-91
2023/01/27 03:13:04;;;;;;;7.63;5.07;;;5.60;53.20;;;;;;4936960;28;20984;-89
2023/01/27 03:18:17;;;;;;;10.33;5.60;;;5.20;53.50;;;;;;4934595;28;20483;-89
2023/01/27 03:20:46;;;;;;;10.30;5.60;;;5.30;53.60;;;;;;4934300;28;20452;-90
2023/01/27 03:23:15;;;;;;;10.80;5.20;;;5.10;54.50;;;;;;4949094;28;20484;-88
2023/01/27 03:25:47;;;;;;;12.47;5.47;;;5.30;53.90;;;;;;4931351;28;20461;-89
2023/01/27 03:28:15;;;;;;;9.70;6.30;;;5.30;53.60;;;;;;4935385;28;21065;-88
2023/01/27 03:30:50;;;;;;;10.00;5.10;;;5.10;53.40;;;;;;4933710;28;20448;-89
2023/01/27 03:33:28;;;;;;;6.80;4.70;;;5.10;53.70;;;;;;4923801;28;20658;-90
2023/01/27 03:47:10;;;;;;;9.57;6.13;;;5.40;52.80;;;;;;4929231;28;20459;-87
2023/01/27 03:49:37;;;;;;;8.30;5.03;;;5.30;52.90;;;;;;4934097;28;20456;-89
2023/01/27 03:52:04;;;;;;;11.40;6.27;;;5.40;53.50;;;;;;4936575;28;21061;-89
2023/01/27 03:54:31;;;;;;;8.53;5.57;;;5.50;53.20;;;;;;4932786;28;20452;-89
2023/01/27 03:57:04;;;;;;;11.70;6.10;;;5.60;52.90;;;;;;4927732;28;20452;-90
2023/01/27 03:59:33;;;;;;;10.87;5.40;;;5.50;52.80;;;;;;4932747;28;20458;-89
2023/01/27 04:07:34;;;;;;;10.77;5.87;;;5.40;53.30;;;;;;4951562;28;20468;-88
2023/01/27 04:10:01;;;;;;;10.17;5.80;;;5.60;52.70;;;;;;4951072;28;20484;-87
2023/01/27 04:12:29;;;;;;;15.67;7.10;;;5.60;52.30;;;;;;4935199;28;20583;-91
2023/01/27 04:14:56;;;;;;;11.50;6.37;;;5.70;52.60;;;;;;4944755;28;20959;-89
2023/01/27 04:17:24;;;;;;;11.40;5.47;;;5.60;52.30;;;;;;4940900;28;20455;-90
2023/01/27 04:19:52;;;;;;;9.80;5.23;;;5.50;52.50;;;;;;4941945;28;20542;-89
2023/01/27 04:22:19;;;;;;;10.57;6.40;;;5.50;52.60;;;;;;4949272;28;20563;-90
2023/01/27 04:24:47;;;;;;;13.20;5.50;;;5.30;53.00;;;;;;4946015;28;20540;-87
2023/01/27 04:27:17;;;;;;;8.80;5.33;;;5.30;53.30;;;;;;4928107;28;21002;-89
2023/01/27 04:29:44;;;;;;;8.53;4.73;;;5.30;53.00;;;;;;4953721;28;20976;-89
2023/01/27 04:32:13;;;;;;;8.10;4.47;;;5.40;53.10;;;;;;4951457;28;20512;-88
2023/01/27 04:34:41;;;;;;;10.03;5.40;;;5.50;52.80;;;;;;4941419;28;20515;-89
2023/01/27 04:37:10;;;;;;;9.80;5.27;;;5.40;53.10;;;;;;4949519;28;20591;-89
2023/01/27 04:39:37;;;;;;;12.53;6.23;;;5.20;53.20;;;;;;4931501;28;20460;-86
2023/01/27 04:42:04;;;;;;;6.67;4.53;;;5.20;53.60;;;;;;4952517;28;20444;-87
2023/01/27 04:44:31;;;;;;;12.50;5.90;;;5.20;53.20;;;;;;4932261;28;20448;-88
2023/01/27 04:46:59;;;;;;;9.17;4.77;;;4.90;53.60;;;;;;4937486;28;20473;-89
2023/01/27 04:49:27;;;;;;;12.10;6.33;;;4.90;54.00;;;;;;4933947;28;20531;-89
2023/01/27 04:51:54;;;;;;;9.13;5.73;;;5.10;54.20;;;;;;4938213;28;20544;-88
2023/01/27 04:54:23;;;;;;;12.27;5.40;;;5.20;53.90;;;;;;4935975;28;20512;-88
2023/01/27 04:56:58;;;;;;;12.53;6.20;;;5.30;53.50;;;;;;4942426;28;20451;-89
2023/01/27 04:59:26;;;;;;;9.73;5.23;;;5.20;53.30;;;;;;4967717;28;20456;-88
2023/01/27 05:01:53;;;;;;;10.87;5.67;;;5.30;53.40;;;;;;4936991;28;20471;-91
2023/01/27 05:04:20;;;;;;;12.90;6.47;;;5.40;53.50;;;;;;4936016;28;20452;-90
2023/01/27 05:06:47;;;;;;;12.03;5.50;;;5.60;53.20;;;;;;4931996;28;20485;-91
2023/01/27 05:09:15;;;;;;;10.07;5.87;;;5.70;52.50;;;;;;4934266;28;20535;-88
2023/01/27 05:11:44;;;;;;;20.27;13.37;;;5.70;52.60;;;;;;4947867;28;20451;-89
2023/01/27 05:14:12;;;;;;;14.07;7.77;;;5.70;52.70;;;;;;4958949;28;21015;-89
2023/01/27 05:16:39;;;;;;;11.40;5.63;;;5.70;52.60;;;;;;4946299;28;20460;-87
2023/01/27 05:19:07;;;;;;;8.27;5.67;;;5.70;52.40;;;;;;4929279;28;20447;-90
2023/01/27 05:21:34;;;;;;;12.47;6.40;;;5.70;52.20;;;;;;4923192;28;20465;-86
2023/01/27 05:24:02;;;;;;;8.87;4.90;;;5.40;52.50;;;;;;4934803;28;20464;-87
2023/01/27 05:26:29;;;;;;;9.20;5.57;;;5.50;52.40;;;;;;4941303;28;20527;-87
2023/01/27 05:28:59;;;;;;;11.70;6.10;;;5.50;53.10;;;;;;4926161;28;20580;-88
2023/01/27 05:31:28;;;;;;;9.77;5.10;;;5.50;52.50;;;;;;4922588;28;21001;-88
2023/01/27 05:33:56;;;;;;;11.87;6.17;;;5.70;52.50;;;;;;4925444;28;20484;-88
2023/01/27 05:36:26;;;;;;;10.33;5.63;;;5.80;52.40;;;;;;4922511;28;20452;-88
2023/01/27 05:38:54;;;;;;;13.73;6.93;;;5.90;52.00;;;;;;4923258;28;20484;-88
2023/01/27 05:41:21;;;;;;;8.87;6.07;;;5.60;52.00;;;;;;4945634;28;20495;-88
2023/01/27 05:43:53;;;;;;;9.73;5.50;;;5.30;52.50;;;;;;4928225;28;20476;-90
2023/01/27 05:46:24;;;;;;;11.00;6.33;;;5.40;52.90;;;;;;4926279;28;20460;-90
2023/01/27 05:48:53;;;;;;;10.20;4.30;;;5.50;52.80;;;;;;4919735;28;21067;-89
2023/01/27 05:51:23;;;;;;;7.77;5.30;;;5.60;52.40;;;;;;4921719;28;20456;-90
2023/01/27 05:53:51;;;;;;;8.30;4.57;;;5.70;52.30;;;;;;4946711;28;20516;-89
2023/01/27 05:56:19;;;;;;;9.93;6.20;;;5.60;52.10;;;;;;4951113;28;20562;-90
2023/01/27 05:58:46;;;;;;;8.30;4.80;;;5.60;51.90;;;;;;4936566;28;20480;-89
2023/01/27 06:01:15;;;;;;;10.43;5.70;;;5.70;52.80;;;;;;4948164;28;20452;-88
2023/01/27 06:03:45;;;;;;;14.60;6.27;;;5.60;51.50;;;;;;4932431;28;20471;-89
2023/01/27 06:06:13;;;;;;;7.60;4.90;;;5.60;51.70;;;;;;4937234;28;20471;-87
2023/01/27 06:08:41;;;;;;;9.23;5.40;;;5.70;51.40;;;;;;4942512;28;20905;-87
2023/01/27 06:11:08;;;;;;;6.10;4.60;;;5.70;51.30;;;;;;4934920;28;20947;-89
2023/01/27 06:13:37;;;;;;;10.70;5.40;;;5.80;52.10;;;;;;4931401;28;20586;-87
2023/01/27 06:16:06;;;;;;;7.90;4.60;;;5.70;51.30;;;;;;4931188;28;20453;-89
2023/01/27 06:18:34;;;;;;;8.43;4.13;;;5.90;51.60;;;;;;4946067;28;20447;-89
2023/01/27 06:21:04;;;;;;;6.27;3.83;;;5.60;51.60;;;;;;4930124;28;21009;-87
2023/01/27 06:23:31;;;;;;;7.97;4.37;;;5.70;52.00;;;;;;4945790;28;20776;-87
2023/01/27 06:26:03;;;;;;;8.00;4.63;;;5.80;51.60;;;;;;4923537;28;21012;-88
2023/01/27 06:28:30;;;;;;;7.30;5.07;;;5.80;51.40;;;;;;4923596;28;20472;-89
2023/01/27 06:31:05;;;;;;;7.40;5.00;;;5.80;51.40;;;;;;4936698;28;20456;-90
2023/01/27 06:33:32;;;;;;;7.80;4.70;;;5.80;51.60;;;;;;4928681;28;20467;-91
2023/01/27 06:36:04;;;;;;;6.60;4.80;;;5.90;52.00;;;;;;4922035;28;20559;-88
2023/01/27 06:38:31;;;;;;;7.63;4.53;;;5.90;51.30;;;;;;4942841;28;20464;-90
2023/01/27 06:40:59;;;;;;;8.70;3.80;;;6.00;51.10;;;;;;4931007;28;20570;-89
2023/01/27 06:43:26;;;;;;;7.97;5.40;;;6.10;51.00;;;;;;4944175;28;21086;-89
2023/01/27 06:45:54;;;;;;;8.27;4.73;;;6.10;51.10;;;;;;4923189;28;20830;-90
2023/01/27 06:48:21;;;;;;;7.90;5.40;;;6.10;51.20;;;;;;4946663;28;20468;-88
2023/01/27 06:50:47;;;;;;;9.80;5.20;;;6.10;51.40;;;;;;4945529;28;20982;-88
2023/01/27 06:53:16;;;;;;;12.37;5.63;;;6.10;51.20;;;;;;4929470;28;20562;-88
2023/01/27 06:55:44;;;;;;;12.33;6.83;;;6.10;51.40;;;;;;4932055;28;20969;-87
2023/01/27 06:58:12;;;;;;;13.50;7.17;;;6.00;51.10;;;;;;4933441;28;20961;-89
2023/01/27 07:00:40;;;;;;;8.30;6.67;;;5.70;51.30;;;;;;4935601;28;20448;-91
2023/01/27 07:03:10;;;;;;;8.40;5.03;;;5.60;52.30;;;;;;4945994;28;20479;-89
2023/01/27 07:05:39;;;;;;;10.67;5.10;;;5.80;51.70;;;;;;4941329;28;20697;-88
2023/01/27 07:08:06;;;;;;;8.80;5.57;;;5.80;51.50;;;;;;4943721;28;21115;-89
2023/01/27 07:10:35;;;;;;;9.60;5.73;;;5.90;52.10;;;;;;4945493;28;20455;-88
2023/01/27 07:13:06;;;;;;;9.70;5.17;;;6.00;51.80;;;;;;4928637;28;21598;-89
2023/01/27 07:15:33;;;;;;;8.10;4.73;;;6.10;51.60;;;;;;4935546;28;20460;-85
2023/01/27 07:18:01;;;;;;;10.30;5.27;;;6.10;51.20;;;;;;4930622;28;20491;-89
2023/01/27 07:20:28;;;;;;;11.67;6.23;;;6.10;51.00;;;;;;4945894;28;20538;-88
2023/01/27 07:22:57;;;;;;;5.47;4.47;;;6.20;50.90;;;;;;4946335;28;20496;-88
2023/01/27 07:25:24;;;;;;;8.80;5.43;;;5.80;50.90;;;;;;4943237;28;20962;-88
2023/01/27 07:27:52;;;;;;;8.80;4.73;;;5.60;51.70;;;;;;4944529;28;20464;-88
2023/01/27 07:30:20;;;;;;;10.90;6.10;;;5.80;51.70;;;;;;4933142;28;20452;-87
2023/01/27 07:32:49;;;;;;;10.33;5.50;;;5.80;51.90;;;;;;4947605;28;20480;-88
2023/01/27 07:35:16;;;;;;;9.07;5.20;;;6.00;51.90;;;;;;4935203;28;20546;-88
2023/01/27 07:37:43;;;;;;;6.50;4.13;;;6.10;51.70;;;;;;4946935;28;20448;-90
2023/01/27 07:40:12;;;;;;;8.03;5.27;;;6.10;51.10;;;;;;4949565;28;20583;-87
2023/01/27 07:42:39;;;;;;;7.17;4.50;;;6.20;51.20;;;;;;4948336;28;20484;-87
2023/01/27 07:45:09;;;;;;;9.50;6.70;;;6.30;51.30;;;;;;4944411;28;20456;-87
2023/01/27 07:47:36;;;;;;;7.40;5.20;;;6.10;51.00;;;;;;4929550;28;20899;-88
2023/01/27 07:50:03;;;;;;;6.20;4.47;;;5.90;51.30;;;;;;4968894;28;20460;-89
2023/01/27 07:52:30;;;;;;;7.80;4.73;;;6.00;51.50;;;;;;4925619;28;20479;-86
2023/01/27 07:54:57;;;;;;;10.60;4.97;;;6.10;50.90;;;;;;4932563;28;20471;-87
2023/01/27 07:57:24;;;;;;;7.67;5.47;;;6.20;50.70;;;;;;4960974;28;21380;-87
2023/01/27 07:59:54;;;;;;;7.10;5.40;;;6.10;51.20;;;;;;4961300;28;20490;-87
2023/01/27 08:02:22;;;;;;;8.87;6.03;;;6.00;51.30;;;;;;4943746;28;20472;-88
2023/01/27 08:04:50;;;;;;;10.13;6.60;;;5.60;51.40;;;;;;4945669;28;20464;-87
2023/01/27 08:07:17;;;;;;;9.13;5.67;;;5.40;52.30;;;;;;4936679;28;20813;-87
2023/01/27 08:09:44;;;;;;;9.50;6.07;;;5.40;52.60;;;;;;4942738;28;20475;-87
2023/01/27 08:12:11;;;;;;;14.30;8.43;;;5.60;52.30;;;;;;4960116;28;20475;-88
2023/01/27 08:14:38;;;;;;;11.03;7.10;;;5.70;51.90;;;;;;4960779;28;20448;-88
2023/01/27 08:17:04;;;;;;;13.23;6.90;;;5.50;52.20;;;;;;4930894;28;20848;-86
2023/01/27 08:19:33;;;;;;;12.70;7.60;;;5.40;52.60;;;;;;4950167;28;20461;-88
2023/01/27 08:22:00;;;;;;;11.00;7.70;;;5.80;52.50;;;;;;4948030;28;20713;-86
2023/01/27 08:24:27;;;;;;;11.53;7.47;;;6.00;51.90;;;;;;4947382;28;20451;-87
2023/01/27 08:26:54;;;;;;;11.10;6.40;;;6.10;51.60;;;;;;4950956;28;20457;-86
2023/01/27 08:29:21;;;;;;;10.73;6.43;;;6.00;51.60;;;;;;4930208;28;20989;-86
2023/01/27 08:31:48;;;;;;;12.07;7.20;;;6.00;51.70;;;;;;4933359;28;20444;-87
2023/01/27 08:34:15;;;;;;;10.47;6.30;;;6.20;51.30;;;;;;4947633;28;20469;-86
2023/01/27 08:36:44;;;;;;;11.10;6.10;;;6.20;51.60;;;;;;4930825;28;20456;-88
2023/01/27 08:39:11;;;;;;;10.67;6.00;;;6.20;51.50;;;;;;4948817;28;20448;-86
2023/01/27 08:41:39;;;;;;;13.30;7.20;;;6.20;51.60;;;;;;4945754;28;20446;-86
2023/01/27 08:44:06;;;;;;;11.63;6.90;;;6.30;51.50;;;;;;4929682;28;22063;-87
2023/01/27 08:46:33;;;;;;;9.00;6.63;;;6.30;51.20;;;;;;4947759;28;20467;-86
2023/01/27 08:49:00;;;;;;;11.57;7.13;;;6.30;51.30;;;;;;4936576;28;20479;-87
2023/01/27 08:51:27;;;;;;;12.87;6.23;;;6.30;51.30;;;;;;4948768;28;20464;-87
2023/01/27 08:53:55;;;;;;;11.73;5.80;;;6.20;51.60;;;;;;4962240;28;20480;-87
2023/01/27 08:56:23;;;;;;;11.70;6.40;;;6.20;51.50;;;;;;4925280;28;20456;-86
2023/01/27 08:58:51;;;;;;;11.17;5.00;;;6.10;51.60;;;;;;4975574;28;20452;-86
2023/01/27 09:01:19;;;;;;;11.00;5.30;;;6.00;51.80;;;;;;4951603;28;20492;-87
2023/01/27 09:03:46;;;;;;;10.10;6.83;;;6.20;51.80;;;;;;4962227;28;20552;-87
2023/01/27 09:06:14;;;;;;;10.00;6.33;;;6.30;51.60;;;;;;4943952;28;20472;-85
2023/01/27 09:08:41;;;;;;;9.57;5.43;;;6.10;51.90;;;;;;4930420;28;20577;-87
2023/01/27 09:11:11;;;;;;;11.10;6.00;;;6.00;51.80;;;;;;4948068;28;20651;-87
2023/01/27 09:13:38;;;;;;;9.33;5.30;;;6.00;52.10;;;;;;4945923;28;20482;-87
2023/01/27 09:16:06;;;;;;;13.27;8.37;;;6.00;52.10;;;;;;4945660;28;20871;-86
2023/01/27 09:18:33;;;;;;;16.83;8.20;;;6.00;52.30;;;;;;4930336;28;20456;-88
2023/01/27 09:21:04;;;;;;;21.43;13.50;;;6.10;52.30;;;;;;4931101;28;20566;-88
2023/01/27 09:23:32;;;;;;;12.90;7.70;;;5.90;52.40;;;;;;4955069;28;20479;-87
2023/01/27 09:25:59;;;;;;;11.97;5.97;;;5.80;52.80;;;;;;4930055;28;20456;-86
2023/01/27 09:28:27;;;;;;;9.17;5.37;;;5.80;52.90;;;;;;4943854;28;20483;-86
2023/01/27 09:30:57;;;;;;;11.67;6.33;;;6.00;52.80;;;;;;4943866;28;20780;-86
2023/01/27 09:33:24;;;;;;;9.30;6.43;;;6.20;52.20;;;;;;4941343;28;20483;-85
2023/01/27 09:35:55;;;;;;;11.47;5.73;;;6.40;51.70;;;;;;4921056;28;20452;-86
2023/01/27 09:38:24;;;;;;;21.50;13.93;;;6.60;51.30;;;;;;4976050;28;20448;-86
2023/01/27 09:41:08;;;;;;;27.83;13.20;;;6.40;51.50;;;;;;4928252;28;20452;-88
2023/01/27 09:43:56;;;;;;;23.47;13.13;;;6.30;52.00;;;;;;4943589;28;20495;-87
2023/01/27 09:46:43;;;;;;;19.60;9.60;;;6.30;52.00;;;;;;4959309;28;20456;-85
2023/01/27 09:49:25;;;;;;;28.37;16.53;;;6.40;52.00;;;;;;4977044;28;20556;-86
2023/01/27 09:52:02;;;;;;;31.60;20.60;;;6.40;51.90;;;;;;4939266;28;20970;-87
2023/01/27 09:54:51;;;;;;;26.00;15.20;;;6.50;51.90;;;;;;4936496;28;20448;-87
2023/01/27 09:57:26;;;;;;;42.03;23.23;;;6.40;51.80;;;;;;4945315;28;20938;-86
2023/01/27 10:00:16;;;;;;;7.33;5.37;;;6.40;51.80;;;;;;4929879;28;20969;-87
2023/01/27 10:03:11;;;;;;;4.87;4.00;;;6.10;52.10;;;;;;4949989;28;20492;-85
2023/01/27 10:06:04;;;;;;;8.43;5.97;;;6.00;52.50;;;;;;4951351;28;20457;-87
2023/01/27 10:09:00;;;;;;;11.17;5.40;;;6.00;52.40;;;;;;4954058;28;21368;-88
2023/01/27 10:11:35;;;;;;;10.00;5.00;;;6.30;52.20;;;;;;4943408;28;20482;-87
2023/01/27 10:14:18;;;;;;;5.90;4.60;;;6.20;52.40;;;;;;4924740;28;20480;-86
2023/01/27 10:16:57;;;;;;;8.10;5.10;;;6.30;52.20;;;;;;4940645;28;20456;-87
2023/01/27 10:19:42;;;;;;;7.30;4.60;;;6.40;51.80;;;;;;4921325;28;20452;-88
2023/01/27 10:22:19;;;;;;;7.40;4.40;;;6.40;51.60;;;;;;4975658;28;20828;-86
2023/01/27 10:25:00;;;;;;;7.10;4.23;;;6.40;51.40;;;;;;4928728;28;20538;-86
2023/01/27 10:27:35;;;;;;;5.20;4.50;;;6.40;51.40;;;;;;4960343;28;20463;-87
2023/01/27 10:30:12;;;;;;;6.63;4.60;;;6.50;51.70;;;;;;4960079;28;20878;-88
2023/01/27 10:32:45;;;;;;;7.00;4.00;;;6.60;51.60;;;;;;4937406;28;20487;-87
2023/01/27 10:35:17;;;;;;;6.70;3.77;;;6.50;50.70;;;;;;4937523;28;20457;-86
2023/01/27 10:38:00;;;;;;;5.30;3.00;;;6.40;51.40;;;;;;4945828;28;20449;-86
2023/01/27 10:40:36;;;;;;;5.53;3.30;;;6.40;50.90;;;;;;4963597;28;20463;-87
2023/01/27 10:43:10;;;;;;;5.93;4.20;;;6.50;51.00;;;;;;4931992;28;20518;-86
2023/01/27 10:45:42;;;;;;;8.20;3.40;;;6.50;50.80;;;;;;4943756;28;20896;-86
2023/01/27 10:48:38;;;;;;;5.23;3.70;;;6.40;51.20;;;;;;4965502;28;20440;-87
2023/01/27 10:51:10;;;;;;;7.00;5.07;;;6.40;51.40;;;;;;4944250;28;20480;-87
2023/01/27 10:53:45;;;;;;;18.73;9.40;;;6.20;51.40;;;;;;4923533;28;20853;-87
2023/01/27 10:56:23;;;;;;;13.37;7.70;;;6.30;52.10;;;;;;4951582;28;20453;-86
2023/01/27 10:58:58;;;;;;;5.13;3.50;;;6.30;51.60;;;;;;4929669;28;20452;-86
2023/01/27 11:01:30;;;;;;;5.30;4.60;;;6.30;51.40;;;;;;4932102;28;20494;-86
2023/01/27 11:04:03;;;;;;;7.90;5.30;;;6.40;51.90;;;;;;4950542;28;21021;-88
2023/01/27 11:06:35;;;;;;;5.30;3.23;;;6.60;51.20;;;;;;4941085;28;20468;-88
2023/01/27 11:09:11;;;;;;;7.60;4.10;;;6.70;50.40;;;;;;4937282;28;20474;-87
2023/01/27 11:11:45;;;;;;;5.70;4.10;;;7.00;50.70;;;;;;4927337;28;20982;-87
2023/01/27 11:14:21;;;;;;;14.10;6.00;;;6.80;50.30;;;;;;4959877;28;20508;-86
2023/01/27 11:16:51;;;;;;;10.47;4.83;;;6.90;50.80;;;;;;4945411;28;20498;-88
2023/01/27 11:19:31;;;;;;;5.13;3.77;;;6.90;51.10;;;;;;4945725;28;20448;-87
2023/01/27 11:21:59;;;;;;;7.53;4.80;;;6.90;50.90;;;;;;4942739;28;20441;-87
2023/01/27 11:24:32;;;;;;;4.57;3.97;;;7.10;50.70;;;;;;4962269;28;20452;-87
2023/01/27 11:27:07;;;;;;;6.90;2.70;;;7.30;50.40;;;;;;4956598;28;20467;-88
2023/01/27 11:29:42;;;;;;;6.43;3.53;;;7.00;49.90;;;;;;4969813;28;20514;-88
2023/01/27 11:32:23;;;;;;;3.67;2.80;;;6.70;51.40;;;;;;4985021;28;20451;-88
2023/01/27 11:35:02;;;;;;;3.50;2.40;;;6.40;51.30;;;;;;4972480;28;20466;-88
2023/01/27 11:37:33;;;;;;;3.67;2.83;;;6.30;52.40;;;;;;4949008;28;20949;-87
2023/01/27 11:40:01;;;;;;;5.13;3.33;;;6.30;52.40;;;;;;4986601;28;20452;-88
2023/01/27 11:42:31;;;;;;;3.50;2.63;;;6.40;51.60;;;;;;4955646;28;20471;-87
2023/01/27 11:44:59;;;;;;;3.93;3.10;;;6.40;51.80;;;;;;4951593;28;20451;-87
2023/01/27 11:47:30;;;;;;;4.33;2.80;;;6.50;51.40;;;;;;4970202;28;20953;-88
2023/01/27 11:50:00;;;;;;;6.67;3.20;;;6.50;51.30;;;;;;4970493;28;20472;-87
2023/01/27 11:52:28;;;;;;;5.30;3.27;;;6.70;51.60;;;;;;4953886;28;20490;-87
2023/01/27 11:55:01;;;;;;;3.73;2.60;;;6.70;50.80;;;;;;4952876;28;20455;-86
2023/01/27 11:57:28;;;;;;;2.40;2.17;;;6.70;50.30;;;;;;4981265;28;21028;-88
2023/01/27 12:00:00;;;;;;;2.70;1.80;;;6.80;50.50;;;;;;4951826;28;20444;-86
2023/01/27 12:02:35;;;;;;;2.90;2.33;;;6.50;50.60;;;;;;4958235;28;20468;-87
2023/01/27 12:05:07;;;;;;;4.93;2.10;;;6.40;51.40;;;;;;4956196;28;20477;-87
2023/01/27 12:07:46;;;;;;;3.13;2.30;;;6.50;51.50;;;;;;4980381;28;20470;-88
2023/01/27 12:10:26;;;;;;;3.73;2.50;;;6.70;51.10;;;;;;4970326;28;20471;-86
2023/01/27 12:12:54;;;;;;;4.90;2.40;;;6.70;50.70;;;;;;4954175;28;20491;-88
2023/01/27 12:15:21;;;;;;;4.47;2.53;;;6.70;50.80;;;;;;4972336;28;20462;-88
2023/01/27 12:17:52;;;;;;;2.93;2.50;;;6.90;50.80;;;;;;4971713;28;20439;-87
2023/01/27 12:20:30;;;;;;;3.00;2.20;;;6.80;51.10;;;;;;4968476;28;20457;-88
2023/01/27 12:23:00;;;;;;;3.60;2.60;;;6.70;51.00;;;;;;4969398;28;20566;-88
2023/01/27 12:25:32;;;;;;;2.83;2.40;;;6.50;51.30;;;;;;4975243;28;20479;-86
2023/01/27 12:28:01;;;;;;;2.70;2.20;;;6.70;51.20;;;;;;4963891;28;20455;-87
2023/01/27 12:30:31;;;;;;;3.53;2.43;;;6.90;50.60;;;;;;4968605;28;20475;-87
2023/01/27 12:32:59;;;;;;;2.77;2.57;;;7.00;50.60;;;;;;4967154;28;20467;-87
2023/01/27 12:35:32;;;;;;;2.30;1.90;;;7.10;50.30;;;;;;4952268;28;21093;-86
2023/01/27 12:38:02;;;;;;;2.43;2.10;;;7.10;50.20;;;;;;4952470;28;20451;-86
2023/01/27 12:40:30;;;;;;;3.00;2.10;;;6.90;50.30;;;;;;4956507;28;20443;-87
2023/01/27 12:43:10;;;;;;;3.60;2.37;;;6.50;51.20;;;;;;4956891;28;21001;-87
2023/01/27 12:45:38;;;;;;;2.53;1.90;;;6.60;51.70;;;;;;4982254;28;20457;-86
2023/01/27 12:48:20;;;;;;;5.57;3.33;;;6.60;51.40;;;;;;4964143;28;20458;-88
2023/01/27 12:51:06;;;;;;;4.73;3.50;;;6.70;51.60;;;;;;4979201;28;20546;-88
2023/01/27 12:53:33;;;;;;;2.10;1.90;;;6.60;51.30;;;;;;4954009;28;20482;-87
2023/01/27 12:56:09;;;;;;;3.80;1.93;;;6.80;51.30;;;;;;4956184;28;20459;-87
2023/01/27 12:58:38;;;;;;;4.93;2.20;;;6.80;51.20;;;;;;4951466;28;20454;-88
2023/01/27 13:01:20;;;;;;;3.03;2.70;;;7.10;51.40;;;;;;4952793;28;20528;-88
2023/01/27 13:03:52;;;;;;;7.80;3.27;;;7.40;50.80;;;;;;4950952;28;20570;-86
2023/01/27 13:06:29;;;;;;;3.73;2.67;;;7.60;49.90;;;;;;4987133;28;20463;-87
2023/01/27 13:08:59;;;;;;;4.60;2.20;;;7.70;50.10;;;;;;4956217;28;20462;-88
2023/01/27 13:11:36;;;;;;;3.40;2.40;;;7.60;50.10;;;;;;4979914;28;20470;-88
2023/01/27 13:14:06;;;;;;;2.70;2.10;;;7.70;50.00;;;;;;4966707;28;20498;-89
2023/01/27 13:16:33;;;;;;;2.83;2.10;;;7.70;50.30;;;;;;4951472;28;20509;-87
2023/01/27 13:19:01;;;;;;;6.97;3.20;;;7.80;50.10;;;;;;4983131;28;20995;-87
2023/01/27 13:21:34;;;;;;;2.37;2.07;;;7.60;49.70;;;;;;4969742;28;20544;-88
2023/01/27 13:24:05;;;;;;;4.10;3.20;;;7.40;50.10;;;;;;4955581;28;20555;-87
2023/01/27 13:26:36;;;;;;;4.93;3.13;;;7.30;50.50;;;;;;4972169;28;20470;-87
2023/01/27 13:29:14;;;;;;;7.70;3.77;;;7.40;50.60;;;;;;4948044;28;20443;-88
2023/01/27 13:31:45;;;;;;;7.13;3.93;;;7.40;50.90;;;;;;4959352;28;20440;-88
2023/01/27 13:34:22;;;;;;;7.13;3.80;;;7.50;50.60;;;;;;4954592;28;20965;-86
2023/01/27 13:36:55;;;;;;;5.60;3.00;;;7.60;50.60;;;;;;4978125;28;20443;-86
2023/01/27 13:39:28;;;;;;;5.43;4.30;;;7.80;50.40;;;;;;4984944;28;20455;-88